createdAt,value
2023-03-30T00:01:17.345Z,100476.91
2023-03-30T00:03:46.265Z,100484.19
2023-03-30T00:06:21.145Z,100473.53
2023-03-30T00:08:53.244Z,100470.88
2023-03-30T00:11:23.199Z,100453.00
2023-03-30T00:13:51.652Z,100447.63
2023-03-30T00:16:19.927Z,100461.94
2023-03-30T00:18:47.711Z,100459.19
2023-03-30T00:21:17.871Z,100449.28
2023-03-30T00:23:47.891Z,100448.13
2023-03-30T00:26:17.935Z,100446.25
2023-03-30T00:28:46.115Z,100449.75
2023-03-30T00:31:13.811Z,100447.94
2023-03-30T00:33:45.506Z,100447.03
2023-03-30T00:36:13.981Z,100452.41
2023-03-30T00:38:42.167Z,100442.56
2023-03-30T00:41:10.170Z,100437.19
2023-03-30T00:44:01.185Z,100432.78
2023-03-30T00:46:29.501Z,100424.78
2023-03-30T00:48:59.247Z,100435.63
2023-03-30T00:51:28.824Z,100436.50
2023-03-30T00:54:01.012Z,100427.59
2023-03-30T00:56:31.314Z,100415.91
2023-03-30T00:59:01.771Z,100406.03
2023-03-30T01:01:31.117Z,100407.75
2023-03-30T01:04:02.154Z,100405.97
2023-03-30T01:06:31.397Z,100395.28
2023-03-30T01:08:59.796Z,100404.31
2023-03-30T01:11:28.328Z,100396.34
2023-03-30T01:14:01.956Z,100396.44
2023-03-30T01:16:36.375Z,100402.81
2023-03-30T01:19:26.696Z,100390.38
2023-03-30T01:22:23.584Z,100392.19
2023-03-30T01:25:18.392Z,100399.38
2023-03-30T01:28:14.677Z,100396.75
2023-03-30T01:31:07.078Z,100388.69
2023-03-30T01:34:22.621Z,100385.78
2023-03-30T01:37:27.275Z,100387.22
2023-03-30T01:40:05.849Z,100377.09
2023-03-30T01:42:39.801Z,100369.63
2023-03-30T01:45:16.839Z,100366.94
2023-03-30T01:47:54.197Z,100369.59
2023-03-30T01:50:26.939Z,100371.34
2023-03-30T01:52:59.902Z,100366.59
2023-03-30T01:55:33.554Z,100376.13
2023-03-30T01:58:05.724Z,100381.53
2023-03-30T02:00:38.175Z,100374.28
2023-03-30T02:03:11.487Z,100383.28
2023-03-30T02:05:41.871Z,100376.06
2023-03-30T02:08:13.419Z,100369.66
2023-03-30T02:10:44.923Z,100376.75
2023-03-30T02:13:14.541Z,100373.06
2023-03-30T02:15:45.866Z,100363.78
2023-03-30T02:18:13.572Z,100363.78
2023-03-30T02:20:42.631Z,100361.59
2023-03-30T02:23:11.440Z,100365.03
2023-03-30T02:25:40.352Z,100367.66
2023-03-30T02:28:09.892Z,100352.28
2023-03-30T02:30:42.388Z,100349.69
2023-03-30T02:33:20.458Z,100353.16
2023-03-30T02:36:11.524Z,100345.69
2023-03-30T02:38:57.415Z,100343.59
2023-03-30T02:41:39.399Z,100333.63
2023-03-30T02:44:15.938Z,100331.50
2023-03-30T02:47:01.536Z,100337.63
2023-03-30T02:49:41.564Z,100330.28
2023-03-30T02:52:17.124Z,100331.22
2023-03-30T02:54:51.019Z,100326.00
2023-03-30T02:57:30.774Z,100327.94
2023-03-30T03:00:07.412Z,100314.69
2023-03-30T03:02:38.466Z,100314.84
2023-03-30T03:05:11.164Z,100322.31
2023-03-30T03:07:40.610Z,100317.03
2023-03-30T03:10:09.946Z,100323.44
2023-03-30T03:12:38.143Z,100327.22
2023-03-30T03:15:08.538Z,100330.72
2023-03-30T03:17:36.520Z,100331.63
2023-03-30T03:20:05.872Z,100331.41
2023-03-30T03:22:33.515Z,100332.31
2023-03-30T03:25:02.527Z,100333.97
2023-03-30T03:27:30.250Z,100344.66
2023-03-30T03:29:57.889Z,100344.56
2023-03-30T03:32:26.941Z,100336.50
2023-03-30T03:34:54.704Z,100340.03
2023-03-30T03:37:22.396Z,100338.19
2023-03-30T03:39:50.039Z,100337.34
2023-03-30T03:42:17.726Z,100342.75
2023-03-30T03:44:45.735Z,100341.94
2023-03-30T03:47:16.337Z,100344.72
2023-03-30T03:49:45.639Z,100344.81
2023-03-30T03:52:13.312Z,100328.88
2023-03-30T03:54:40.969Z,100331.63
2023-03-30T03:57:08.802Z,100326.41
2023-03-30T03:59:36.692Z,100321.09
2023-03-30T04:02:05.482Z,100319.31
2023-03-30T04:04:33.273Z,100307.69
2023-03-30T04:07:02.247Z,100312.22
2023-03-30T04:09:29.928Z,100318.56
2023-03-30T04:11:57.702Z,100310.50
2023-03-30T04:14:25.881Z,100301.63
2023-03-30T04:16:53.564Z,100302.59
2023-03-30T04:19:25.207Z,100303.56
2023-03-30T04:21:52.951Z,100304.44
2023-03-30T04:24:22.483Z,100299.97
2023-03-30T04:26:50.205Z,100284.75
2023-03-30T04:29:17.864Z,100302.72
2023-03-30T04:31:47.105Z,100291.16
2023-03-30T04:34:14.908Z,100290.13
2023-03-30T04:36:44.308Z,100287.44
2023-03-30T04:39:12.103Z,100284.69
2023-03-30T04:41:41.841Z,100288.19
2023-03-30T04:44:11.132Z,100289.06
2023-03-30T04:46:39.059Z,100292.63
2023-03-30T04:49:06.762Z,100286.38
2023-03-30T04:51:34.616Z,100277.44
2023-03-30T04:54:03.126Z,100283.69
2023-03-30T04:56:30.807Z,100272.09
2023-03-30T04:58:59.837Z,100273.94
2023-03-30T05:01:27.549Z,100281.19
2023-03-30T05:03:55.329Z,100291.97
2023-03-30T05:06:23.110Z,100293.84
2023-03-30T05:08:50.981Z,100293.78
2023-03-30T05:11:18.646Z,100292.69
2023-03-30T05:13:47.241Z,100287.31
2023-03-30T05:16:16.243Z,100288.06
2023-03-30T05:18:44.532Z,100277.22
2023-03-30T05:21:12.221Z,100287.91
2023-03-30T05:23:40.869Z,100274.53
2023-03-30T05:26:09.113Z,100265.59
2023-03-30T05:28:36.771Z,100265.53
2023-03-30T05:31:04.757Z,100267.34
2023-03-30T05:33:33.925Z,100276.19
2023-03-30T05:36:01.751Z,100275.31
2023-03-30T05:38:29.379Z,100279.91
2023-03-30T05:40:57.133Z,100278.91
2023-03-30T05:43:25.014Z,100277.94
2023-03-30T05:45:52.718Z,100290.66
2023-03-30T05:48:20.628Z,100292.63
2023-03-30T05:50:49.931Z,100285.59
2023-03-30T05:53:18.052Z,100292.06
2023-03-30T05:55:47.159Z,100279.53
2023-03-30T05:58:14.796Z,100282.19
2023-03-30T06:00:42.474Z,100282.13
2023-03-30T06:03:10.412Z,100280.97
2023-03-30T06:05:39.898Z,100280.81
2023-03-30T06:08:09.371Z,100291.44
2023-03-30T06:10:37.827Z,100299.47
2023-03-30T06:13:06.292Z,100294.13
2023-03-30T06:15:34.173Z,100296.94
2023-03-30T06:18:03.961Z,100313.13
2023-03-30T06:20:32.069Z,100316.63
2023-03-30T06:22:59.722Z,100306.78
2023-03-30T06:25:29.589Z,100306.78
2023-03-30T06:27:57.793Z,100316.69
2023-03-30T06:30:25.575Z,100312.13
2023-03-30T06:32:53.386Z,100303.13
2023-03-30T06:35:21.250Z,100303.06
2023-03-30T06:37:48.957Z,100300.31
2023-03-30T06:40:17.284Z,100298.53
2023-03-30T06:42:46.935Z,100300.31
2023-03-30T06:45:14.963Z,100307.31
2023-03-30T06:47:42.784Z,100310.69
2023-03-30T06:50:11.737Z,100311.59
2023-03-30T06:52:39.856Z,100310.56
2023-03-30T06:55:07.959Z,100316.72
2023-03-30T06:57:35.657Z,100322.19
2023-03-30T07:00:10.201Z,100320.22
2023-03-30T07:02:38.001Z,100318.56
2023-03-30T07:05:07.405Z,100325.44
2023-03-30T07:07:36.015Z,100312.84
2023-03-30T07:10:09.931Z,100311.69
2023-03-30T07:12:37.915Z,100323.25
2023-03-30T07:15:08.797Z,100327.31
2023-03-30T07:17:37.417Z,100326.34
2023-03-30T07:20:07.989Z,100325.47
2023-03-30T07:22:36.370Z,100330.97
2023-03-30T07:25:04.588Z,100328.22
2023-03-30T07:27:32.259Z,100341.06
2023-03-30T07:30:10.199Z,100343.31
2023-03-30T07:32:39.761Z,100346.22
2023-03-30T07:35:08.875Z,100346.38
2023-03-30T07:37:37.663Z,100357.28
2023-03-30T07:40:07.416Z,100366.31
2023-03-30T07:42:35.128Z,100379.88
2023-03-30T07:45:02.964Z,100376.59
2023-03-30T07:47:30.783Z,100382.16
2023-03-30T07:49:59.848Z,100382.47
2023-03-30T07:52:27.613Z,100385.00
2023-03-30T07:54:55.624Z,100393.94
2023-03-30T07:57:23.884Z,100394.63
2023-03-30T07:59:51.935Z,100402.53
2023-03-30T08:02:19.728Z,100394.66
2023-03-30T08:04:47.690Z,100402.16
2023-03-30T08:07:17.796Z,100408.69
2023-03-30T08:09:46.122Z,100403.22
2023-03-30T08:12:13.808Z,100415.91
2023-03-30T08:14:41.759Z,100413.31
2023-03-30T08:17:12.192Z,100413.25
2023-03-30T08:19:39.951Z,100422.03
2023-03-30T08:22:07.684Z,100420.09
2023-03-30T08:24:36.772Z,100417.16
2023-03-30T08:27:04.637Z,100417.84
2023-03-30T08:29:33.637Z,100416.09
2023-03-30T08:32:01.486Z,100422.44
2023-03-30T08:34:29.242Z,100410.91
2023-03-30T08:36:58.112Z,100425.38
2023-03-30T08:39:26.372Z,100414.88
2023-03-30T08:42:13.940Z,100411.59
2023-03-30T08:44:42.663Z,100418.94
2023-03-30T08:47:13.417Z,100412.31
2023-03-30T08:49:46.012Z,100401.94
2023-03-30T08:52:22.413Z,100428.16
2023-03-30T08:54:52.108Z,100417.16
2023-03-30T08:57:36.823Z,100412.81
2023-03-30T09:00:17.586Z,100407.59
2023-03-30T09:02:51.805Z,100418.59
2023-03-30T09:05:26.701Z,100412.88
2023-03-30T09:08:01.743Z,100409.13
2023-03-30T09:10:32.912Z,100415.56
2023-03-30T09:13:05.960Z,100410.38
2023-03-30T09:15:40.069Z,100427.13
2023-03-30T09:18:16.921Z,100434.72
2023-03-30T09:20:47.153Z,100431.47
2023-03-30T09:23:17.529Z,100436.66
2023-03-30T09:25:53.365Z,100444.72
2023-03-30T09:28:28.646Z,100441.06
2023-03-30T09:31:02.618Z,100446.66
2023-03-30T09:33:42.366Z,100448.47
2023-03-30T09:36:16.021Z,100454.25
2023-03-30T09:38:44.933Z,100457.66
2023-03-30T09:41:25.835Z,100452.25
2023-03-30T09:43:56.625Z,100454.88
2023-03-30T09:46:24.399Z,100457.56
2023-03-30T09:48:52.786Z,100460.94
2023-03-30T09:51:23.279Z,100460.56
2023-03-30T09:53:52.949Z,100467.28
2023-03-30T09:56:29.159Z,100457.78
2023-03-30T09:58:58.256Z,100449.53
2023-03-30T10:01:38.912Z,100459.09
2023-03-30T10:04:12.778Z,100458.13
2023-03-30T10:06:47.622Z,100471.97
2023-03-30T10:09:16.560Z,100474.66
2023-03-30T10:11:46.603Z,100472.25
2023-03-30T10:14:33.376Z,100471.66
2023-03-30T10:17:01.775Z,100480.59
2023-03-30T10:19:30.182Z,100486.97
2023-03-30T10:21:59.628Z,100489.13
2023-03-30T10:24:32.021Z,100483.47
2023-03-30T10:27:00.543Z,100486.84
2023-03-30T10:29:30.593Z,100491.19
2023-03-30T10:32:01.332Z,100492.72
2023-03-30T10:34:39.198Z,100481.47
2023-03-30T10:37:10.826Z,100479.13
2023-03-30T10:39:41.636Z,100481.53
2023-03-30T10:42:13.231Z,100488.63
2023-03-30T10:44:49.075Z,100490.44
2023-03-30T10:48:00.469Z,100486.63
2023-03-30T10:50:36.400Z,100488.03
2023-03-30T10:53:17.300Z,100489.69
2023-03-30T10:55:52.560Z,100489.88
2023-03-30T10:58:32.181Z,100489.13
2023-03-30T11:01:11.009Z,100485.69
2023-03-30T11:03:43.382Z,100483.00
2023-03-30T11:06:13.448Z,100504.81
2023-03-30T11:08:44.848Z,100497.22
2023-03-30T11:11:19.103Z,100501.88
2023-03-30T11:13:50.987Z,100497.34
2023-03-30T11:16:25.346Z,100494.59
2023-03-30T11:18:58.051Z,100500.66
2023-03-30T11:21:30.882Z,100501.94
2023-03-30T11:24:02.655Z,100496.78
2023-03-30T11:26:38.490Z,100496.78
2023-03-30T11:29:31.819Z,100494.22
2023-03-30T11:32:14.617Z,100491.72
2023-03-30T11:34:52.759Z,100487.28
2023-03-30T11:37:29.713Z,100482.34
2023-03-30T11:40:08.327Z,100490.53
2023-03-30T11:42:37.522Z,100497.75
2023-03-30T11:45:17.199Z,100491.28
2023-03-30T11:47:59.161Z,100496.44
2023-03-30T11:50:44.626Z,100490.84
2023-03-30T11:53:24.332Z,100476.66
2023-03-30T11:56:08.770Z,100490.72
2023-03-30T11:58:38.330Z,100484.22
2023-03-30T12:01:29.454Z,100496.22
2023-03-30T12:04:05.453Z,100489.16
2023-03-30T12:06:34.501Z,100479.84
2023-03-30T12:09:25.757Z,100479.03
2023-03-30T12:11:58.285Z,100474.25
2023-03-30T12:14:40.546Z,100466.34
2023-03-30T12:17:19.328Z,100462.13
2023-03-30T12:19:56.706Z,100472.00
2023-03-30T12:22:31.732Z,100460.66
2023-03-30T12:25:07.612Z,100486.28
2023-03-30T12:27:52.572Z,100484.59
2023-03-30T12:30:27.519Z,100484.44
2023-03-30T12:33:01.180Z,100482.00
2023-03-30T12:35:54.310Z,100494.53
2023-03-30T12:38:25.525Z,100498.91
2023-03-30T12:41:18.463Z,100563.69
2023-03-30T12:44:10.071Z,100564.03
2023-03-30T12:46:49.988Z,100522.81
2023-03-30T12:49:27.042Z,100537.47
2023-03-30T12:52:09.509Z,100525.50
2023-03-30T12:54:43.088Z,100524.19
2023-03-30T12:57:22.475Z,100535.22
2023-03-30T13:00:08.920Z,100520.69
2023-03-30T13:02:50.652Z,100518.41
2023-03-30T13:05:21.742Z,100522.50
2023-03-30T13:07:52.382Z,100509.94
2023-03-30T13:10:40.624Z,100509.03
2023-03-30T13:13:18.512Z,100494.47
2023-03-30T13:15:49.305Z,100504.28
2023-03-30T13:18:33.884Z,100497.78
2023-03-30T13:21:21.573Z,100492.16
2023-03-30T13:24:21.900Z,100498.28
2023-03-30T13:26:51.457Z,100505.34
2023-03-30T13:29:19.255Z,100503.38
2023-03-30T13:32:04.253Z,100497.19
2023-03-30T13:34:58.435Z,100500.38
2023-03-30T13:37:59.176Z,100490.31
2023-03-30T13:40:41.905Z,100495.19
2023-03-30T13:43:22.339Z,100491.44
2023-03-30T13:46:05.819Z,100483.38
2023-03-30T13:48:53.938Z,100486.75
2023-03-30T13:51:25.406Z,100479.34
2023-03-30T13:53:56.959Z,100474.69
2023-03-30T13:56:27.279Z,100474.59
2023-03-30T13:59:02.497Z,100472.69
2023-03-30T14:01:30.757Z,100485.59
2023-03-30T14:04:16.279Z,100471.53
2023-03-30T14:06:51.350Z,100466.00
2023-03-30T14:09:23.348Z,100467.41
2023-03-30T14:11:54.798Z,100470.44
2023-03-30T14:14:27.901Z,100480.84
2023-03-30T14:16:57.197Z,100473.53
2023-03-30T14:19:28.648Z,100471.03
2023-03-30T14:22:00.568Z,100464.59
2023-03-30T14:24:30.673Z,100473.06
2023-03-30T14:27:08.318Z,100482.16
2023-03-30T14:29:44.883Z,100492.38
2023-03-30T14:32:15.120Z,100501.88
2023-03-30T14:34:47.246Z,100491.31
2023-03-30T14:37:15.623Z,100495.31
2023-03-30T14:39:46.820Z,100492.50
2023-03-30T14:42:19.618Z,100492.84
2023-03-30T14:44:50.054Z,100485.59
2023-03-30T14:47:22.189Z,100477.50
2023-03-30T14:49:52.497Z,100482.91
2023-03-30T14:52:21.945Z,100467.28
2023-03-30T14:55:05.276Z,100475.16
2023-03-30T14:57:40.467Z,100464.69
2023-03-30T15:00:18.288Z,100470.47
2023-03-30T15:02:47.422Z,100467.94
2023-03-30T15:05:17.747Z,100472.38
2023-03-30T15:07:49.070Z,100464.34
2023-03-30T15:10:25.556Z,100472.50
2023-03-30T15:12:57.543Z,100482.41
2023-03-30T15:15:28.163Z,100505.91
2023-03-30T15:17:56.511Z,100509.81
2023-03-30T15:20:26.608Z,100530.56
2023-03-30T15:22:55.149Z,100557.69
2023-03-30T15:25:30.123Z,100532.75
2023-03-30T15:28:04.745Z,100525.59
2023-03-30T15:30:36.480Z,100515.38
2023-03-30T15:33:05.817Z,100502.25
2023-03-30T15:35:35.727Z,100497.91
2023-03-30T15:38:22.567Z,100505.44
2023-03-30T15:40:51.033Z,100506.09
2023-03-30T15:43:22.148Z,100496.13
2023-03-30T15:45:55.626Z,100494.38
2023-03-30T15:48:26.639Z,100496.13
2023-03-30T15:51:03.863Z,100488.97
2023-03-30T15:53:44.367Z,100498.81
2023-03-30T15:56:21.326Z,100497.75
2023-03-30T15:58:52.114Z,100499.25
2023-03-30T16:01:19.836Z,100490.19
2023-03-30T16:03:55.674Z,100488.25
2023-03-30T16:06:24.216Z,100497.78
2023-03-30T16:08:51.878Z,100481.53
2023-03-30T16:11:20.677Z,100475.00
2023-03-30T16:13:49.791Z,100477.34
2023-03-30T16:16:19.358Z,100475.63
2023-03-30T16:18:47.182Z,100479.91
2023-03-30T16:21:15.761Z,100476.41
2023-03-30T16:23:43.440Z,100474.75
2023-03-30T16:26:12.144Z,100475.91
2023-03-30T16:28:42.572Z,100466.31
2023-03-30T16:31:15.896Z,100476.69
2023-03-30T16:33:49.951Z,100469.91
2023-03-30T16:36:24.065Z,100482.56
2023-03-30T16:38:51.824Z,100480.81
2023-03-30T16:41:21.028Z,100480.16
2023-03-30T16:43:49.088Z,100482.09
2023-03-30T16:46:19.473Z,100473.97
2023-03-30T16:48:48.774Z,100475.75
2023-03-30T16:51:17.189Z,100495.41
2023-03-30T16:53:45.153Z,100500.06
2023-03-30T16:56:18.355Z,100529.63
2023-03-30T16:58:47.579Z,100506.09
2023-03-30T17:01:20.105Z,100500.38
2023-03-30T17:03:49.437Z,100482.34
2023-03-30T17:06:17.222Z,100484.69
2023-03-30T17:08:45.364Z,100481.88
2023-03-30T17:11:13.825Z,100490.47
2023-03-30T17:13:42.412Z,100493.56
2023-03-30T17:16:12.614Z,100506.56
2023-03-30T17:18:40.353Z,100522.03
2023-03-30T17:21:16.118Z,100505.28
2023-03-30T17:23:44.863Z,100507.25
2023-03-30T17:26:13.280Z,100505.66
2023-03-30T17:28:41.378Z,100510.31
2023-03-30T17:31:16.284Z,100514.94
2023-03-30T17:33:47.441Z,100515.00
2023-03-30T17:36:19.451Z,100525.09
2023-03-30T17:38:55.111Z,100510.78
2023-03-30T17:41:22.764Z,100525.97
2023-03-30T17:43:51.494Z,100521.44
2023-03-30T17:46:21.187Z,100516.97
2023-03-30T17:48:51.019Z,100519.75
2023-03-30T17:51:20.579Z,100523.34
2023-03-30T17:53:48.272Z,100519.78
2023-03-30T17:56:16.023Z,100523.56
2023-03-30T17:58:43.752Z,100514.72
2023-03-30T18:01:12.392Z,100522.00
2023-03-30T18:03:40.694Z,100523.00
2023-03-30T18:06:08.805Z,100522.19
2023-03-30T18:08:39.015Z,100520.44
2023-03-30T18:11:07.098Z,100524.91
2023-03-30T18:13:35.035Z,100532.97
2023-03-30T18:16:02.949Z,100529.50
2023-03-30T18:18:32.258Z,100529.50
2023-03-30T18:21:02.473Z,100541.16
2023-03-30T18:23:31.449Z,100535.03
2023-03-30T18:26:01.517Z,100536.97
2023-03-30T18:28:30.715Z,100534.41
2023-03-30T18:31:00.518Z,100537.09
2023-03-30T18:33:28.360Z,100536.28
2023-03-30T18:35:57.816Z,100537.97
2023-03-30T18:38:26.418Z,100548.66
2023-03-30T18:40:57.626Z,100537.03
2023-03-30T18:43:27.263Z,100538.81
2023-03-30T18:45:58.557Z,100538.84
2023-03-30T18:48:28.854Z,100537.16
2023-03-30T18:50:56.898Z,100538.13
2023-03-30T18:53:28.095Z,100542.63
2023-03-30T18:55:58.500Z,100539.09
2023-03-30T18:58:29.707Z,100540.88
2023-03-30T19:00:57.635Z,100543.44
2023-03-30T19:03:27.187Z,100540.81
2023-03-30T19:05:55.963Z,100543.34
2023-03-30T19:08:25.324Z,100541.56
2023-03-30T19:10:54.908Z,100536.19
2023-03-30T19:13:23.725Z,100529.97
2023-03-30T19:15:54.056Z,100534.38
2023-03-30T19:18:22.199Z,100530.75
2023-03-30T19:20:51.086Z,100532.56
2023-03-30T19:23:21.567Z,100529.84
2023-03-30T19:25:49.845Z,100522.69
2023-03-30T19:28:17.983Z,100522.66
2023-03-30T19:30:45.907Z,100511.03
2023-03-30T19:33:17.289Z,100515.41
2023-03-30T19:35:46.748Z,100520.69
2023-03-30T19:38:15.633Z,100519.75
2023-03-30T19:40:43.653Z,100517.06
2023-03-30T19:43:11.980Z,100518.75
2023-03-30T19:45:40.027Z,100507.03
2023-03-30T19:48:08.122Z,100511.63
2023-03-30T19:50:38.475Z,100515.25
2023-03-30T19:53:06.153Z,100512.44
2023-03-30T19:55:33.861Z,100502.59
2023-03-30T19:58:01.765Z,100511.56
2023-03-30T20:00:31.371Z,100504.34
2023-03-30T20:02:59.225Z,100504.44
2023-03-30T20:05:27.043Z,100511.66
2023-03-30T20:07:57.585Z,100508.94
2023-03-30T20:10:26.532Z,100508.06
2023-03-30T20:12:55.111Z,100491.97
2023-03-30T20:15:24.843Z,100493.72
2023-03-30T20:17:56.369Z,100488.44
2023-03-30T20:20:25.438Z,100484.03
2023-03-30T20:22:56.404Z,100487.72
2023-03-30T20:25:25.965Z,100488.78
2023-03-30T20:27:56.872Z,100487.19
2023-03-30T20:30:24.562Z,100482.84
2023-03-30T20:33:06.797Z,100472.25
2023-03-30T20:35:37.369Z,100477.81
2023-03-30T20:38:06.182Z,100467.97
2023-03-30T20:40:35.749Z,100475.13
2023-03-30T20:43:03.639Z,100471.59
2023-03-30T20:45:31.957Z,100475.22
2023-03-30T20:48:05.980Z,100481.50
2023-03-30T20:50:34.577Z,100477.16
2023-03-30T20:53:02.257Z,100480.84
2023-03-30T20:55:29.930Z,100477.22
2023-03-30T20:57:59.145Z,100494.25
2023-03-30T21:00:27.427Z,100482.72
2023-03-30T21:02:55.151Z,100481.97
2023-03-30T21:05:22.867Z,100485.66
2023-03-30T21:07:50.544Z,100472.28
2023-03-30T21:10:18.297Z,100471.34
2023-03-30T21:12:46.144Z,100472.06
2023-03-30T21:15:15.291Z,100472.16
2023-03-30T21:17:43.468Z,100476.66
2023-03-30T21:20:14.030Z,100466.88
2023-03-30T21:22:41.737Z,100455.16
2023-03-30T21:25:11.331Z,100457.88
2023-03-30T21:27:39.069Z,100456.03
2023-03-30T21:30:08.179Z,100452.63
2023-03-30T21:32:37.436Z,100450.06
2023-03-30T21:35:05.584Z,100456.41
2023-03-30T21:37:33.271Z,100444.81
2023-03-30T21:40:01.089Z,100443.97
2023-03-30T21:42:28.773Z,100437.72
2023-03-30T21:44:56.464Z,100431.50
2023-03-30T21:47:24.127Z,100436.88
2023-03-30T21:49:53.215Z,100438.84
2023-03-30T21:52:20.919Z,100436.19
2023-03-30T21:54:48.632Z,100419.31
2023-03-30T21:57:16.393Z,100432.75
2023-03-30T21:59:44.144Z,100424.84
2023-03-30T22:02:11.839Z,100418.56
2023-03-30T22:04:39.645Z,100417.72
2023-03-30T22:07:08.692Z,100415.16
2023-03-30T22:09:36.727Z,100420.53
2023-03-30T22:12:04.593Z,100420.59
2023-03-30T22:14:32.337Z,100417.09
2023-03-30T22:17:00.014Z,100411.84
2023-03-30T22:19:28.957Z,100406.41
2023-03-30T22:21:56.629Z,100409.91
2023-03-30T22:24:25.648Z,100406.25
2023-03-30T22:26:53.393Z,100408.75
2023-03-30T22:29:23.199Z,100403.38
2023-03-30T22:31:52.816Z,100398.06
2023-03-30T22:34:20.959Z,100387.28
2023-03-30T22:36:48.598Z,100389.00
2023-03-30T22:39:16.682Z,100380.97
2023-03-30T22:41:46.138Z,100380.94
2023-03-30T22:44:13.798Z,100388.03
2023-03-30T22:46:41.462Z,100383.53
2023-03-30T22:49:09.674Z,100379.94
2023-03-30T22:51:38.194Z,100392.44
2023-03-30T22:54:06.277Z,100372.69
2023-03-30T22:56:33.972Z,100380.81
2023-03-30T22:59:03.629Z,100368.34
2023-03-30T23:01:32.071Z,100358.53
2023-03-30T23:04:00.677Z,100353.34
2023-03-30T23:06:28.455Z,100359.59
2023-03-30T23:08:56.094Z,100348.13
2023-03-30T23:11:23.975Z,100337.56
2023-03-30T23:13:52.387Z,100344.75
2023-03-30T23:16:21.858Z,100338.56
2023-03-30T23:18:50.231Z,100340.41
2023-03-30T23:21:18.023Z,100344.94
2023-03-30T23:23:45.704Z,100335.16
2023-03-30T23:26:13.401Z,100328.00
2023-03-30T23:28:42.326Z,100326.31
2023-03-30T23:31:11.888Z,100327.28
2023-03-30T23:33:41.448Z,100320.22
2023-03-30T23:36:10.438Z,100319.38
2023-03-30T23:38:38.582Z,100317.56
2023-03-30T23:41:07.678Z,100308.63
2023-03-30T23:43:35.489Z,100303.22
2023-03-30T23:46:03.362Z,100296.22
2023-03-30T23:48:31.540Z,100296.13
2023-03-30T23:51:00.795Z,100285.44
2023-03-30T23:53:28.667Z,100286.34
2023-03-30T23:55:56.438Z,100288.16
2023-03-30T23:58:24.082Z,100280.09
